»·PEaware :: N168CF KASE-KDEN

N168CF :: KASE-KDEN

FLIGHT INFORMATION

Flight Status: Arrived
Operator: Privately registered:
United States
More flights under this callsign
Pilot: Patricio R. (14780)
Aircraft: MCDONNELL-DOUGLAS MD-88
(MD88)
More flights by this aircraft type
Origin: KASE Aspen-Pitkin Co/Sardy
United States
Destination: KDEN Denver Intl
United States
More flights between these airports :: More routes between these airports
Route: +LINDZ8 DBL JNETT CREDE3
File this flight plan on PilotEdge
Remarks: PBN / A1B2 DOF / 180106 REG / N168CF PER / C RMK / TCAS SIMBRIEF
Altitude:
(Current/Filed)
23,000ft
Speed:
(Current/Filed)
386kts
Departed: 06-Jan-18 12:31 PM
Arrived: 06-Jan-18 01:07 PM
Distance/Time
Traveled:
109nm/0:35
Distance/Time
To Go:
Arrived

Flight Plot

Page will automatically refresh every two minutes.


Map Options




Map Legend


Flown Route
Filed Route
Departure Airport
Arrival Airport
Navaid (VOR, NDB)
Fix

Horizontal Profiles

Position Reports

Time Latitude Longitude Heading Altitude Ground
Speed
06-Jan-18 12:17 39.218460 -106.864419 0 7785ft 0kts
06-Jan-18 12:18 39.218460 -106.864419 248 7785ft 0kts
06-Jan-18 12:19 39.218460 -106.864419 248 7785ft 0kts
06-Jan-18 12:20 39.218460 -106.864419 248 7785ft 0kts
06-Jan-18 12:21 39.218460 -106.864419 248 7785ft 0kts
06-Jan-18 12:22 39.218460 -106.864419 248 7785ft 0kts
06-Jan-18 12:23 39.218460 -106.864419 248 7785ft 0kts
06-Jan-18 12:24 39.218460 -106.864419 248 7785ft 0kts
06-Jan-18 12:25 39.218460 -106.864419 248 7785ft 0kts
06-Jan-18 12:26 39.218460 -106.864419 248 7785ft 0kts
06-Jan-18 12:27 39.218460 -106.864419 248 7785ft 0kts
06-Jan-18 12:28 39.218460 -106.864419 248 7785ft 0kts
06-Jan-18 12:29 39.218460 -106.864419 248 7785ft 0kts
06-Jan-18 12:30 39.218460 -106.864419 248 7785ft 0kts
06-Jan-18 12:31 39.218460 -106.864419 248 7785ft 0kts
06-Jan-18 12:32 39.218460 -106.864419 248 7785ft 0kts
06-Jan-18 12:33 39.218400 -106.864614 246 7786ft 3kts
06-Jan-18 12:34 39.217631 -106.865002 167 7795ft 8kts
06-Jan-18 12:35 39.213919 -106.863260 160 7816ft 15kts
06-Jan-18 12:36 39.211736 -106.863188 265 7827ft 6kts
06-Jan-18 12:37 39.219050 -106.866897 339 7782ft 116kts
06-Jan-18 12:38 39.262460 -106.877578 352 9216ft 167kts
06-Jan-18 12:39 39.284669 -106.921542 281 10449ft 171kts
06-Jan-18 12:40 39.298151 -106.991157 281 11630ft 230kts
06-Jan-18 12:41 39.328434 -107.063801 330 14089ft 261kts
06-Jan-18 12:42 39.403465 -107.052623 44 15831ft 329kts
06-Jan-18 12:43 39.431061 -106.937843 75 17600ft 361kts
06-Jan-18 12:44 39.440019 -106.809677 118 19750ft 370kts
06-Jan-18 12:45 39.401708 -106.682805 110 21718ft 390kts
06-Jan-18 12:46 39.368382 -106.546631 109 23206ft 403kts
06-Jan-18 12:47 39.331748 -106.409415 114 23226ft 404kts
06-Jan-18 12:48 39.293207 -106.281267 114 23216ft 404kts
06-Jan-18 12:49 39.253049 -106.146129 111 23214ft 405kts
06-Jan-18 12:50 39.260931 -106.027354 75 23218ft 408kts
06-Jan-18 12:51 39.286018 -105.859865 78 22846ft 409kts
06-Jan-18 12:52 39.302990 -105.740455 78 22014ft 399kts
06-Jan-18 12:53 39.337885 -105.609220 54 21040ft 383kts
06-Jan-18 12:54 39.399855 -105.471973 53 19905ft 375kts
06-Jan-18 12:55 39.448235 -105.380642 51 19103ft 368kts
06-Jan-18 12:56 39.503932 -105.275306 53 17734ft 362kts
06-Jan-18 12:57 39.557778 -105.172526 53 16287ft 356kts
06-Jan-18 12:58 39.611652 -105.069238 53 15224ft 337kts
06-Jan-18 12:59 39.663351 -104.970063 53 14243ft 327kts
06-Jan-18 13:00 39.713247 -104.873157 53 13439ft 316kts
06-Jan-18 13:01 39.781472 -104.836614 352 13040ft 272kts
06-Jan-18 13:02 39.855659 -104.839103 356 12269ft 259kts
06-Jan-18 13:03 39.919139 -104.838922 356 11559ft 245kts
06-Jan-18 13:04 39.986524 -104.839668 356 11057ft 241kts
06-Jan-18 13:05 40.053785 -104.840316 357 11060ft 243kts
06-Jan-18 13:06 40.116926 -104.822487 55 10732ft 258kts
06-Jan-18 13:07 40.122280 -104.730256 97 9767ft 256kts
06-Jan-18 13:08 40.073333 -104.671316 146 9047ft 236kts
06-Jan-18 13:09 40.011928 -104.658324 183 8413ft 224kts
06-Jan-18 13:10 39.954008 -104.658988 183 7265ft 192kts
06-Jan-18 13:11 39.904494 -104.659570 181 6274ft 164kts
06-Jan-18 13:12 39.860625 -104.660162 181 5444ft 153kts
06-Jan-18 13:13 39.841230 -104.661130 206 5437ft 15kts
06-Jan-18 13:14 39.840187 -104.662887 268 5437ft 5kts
06-Jan-18 13:15 39.839441 -104.663800 267 5437ft 0kts

Navigation Log

Ident Type
1. KASE Airport
2. LINDZ Fix
3. DBL Navaid
4. JNETT Fix
5. KDEN Airport